createdAt,value
2019-02-04T00:04:41.364Z,22.69
2019-02-04T00:07:09.830Z,22.69
2019-02-04T00:09:40.837Z,22.70
2019-02-04T00:12:10.831Z,22.70
2019-02-04T00:14:40.368Z,22.79
2019-02-04T00:17:10.656Z,22.78
2019-02-04T00:19:39.997Z,22.64
2019-02-04T00:22:11.766Z,22.64
2019-02-04T00:24:42.864Z,22.67
2019-02-04T00:27:14.745Z,22.62
2019-02-04T00:29:46.899Z,22.59
2019-02-04T00:33:06.519Z,22.55
2019-02-04T00:35:39.449Z,22.55
2019-02-04T00:38:10.884Z,22.62
2019-02-04T00:40:41.087Z,22.58
2019-02-04T00:43:11.878Z,22.55
2019-02-04T00:45:41.969Z,22.55
2019-02-04T00:48:12.176Z,22.51
2019-02-04T00:50:43.936Z,22.47
2019-02-04T00:53:15.755Z,22.42
2019-02-04T00:55:46.975Z,22.42
2019-02-04T00:58:16.863Z,22.48
2019-02-04T01:00:47.330Z,22.48
2019-02-04T01:05:06.952Z,22.47
2019-02-04T01:07:38.768Z,22.36
2019-02-04T01:10:11.829Z,22.36
2019-02-04T01:12:42.699Z,22.40
2019-02-04T01:15:13.833Z,22.38
2019-02-04T01:17:45.705Z,22.45
2019-02-04T01:20:20.741Z,22.49
2019-02-04T01:22:51.813Z,22.39
2019-02-04T01:25:23.847Z,22.40
2019-02-04T01:27:54.795Z,22.37
2019-02-04T01:30:26.817Z,22.33
2019-02-04T01:32:57.803Z,22.24
2019-02-04T01:35:29.781Z,22.23
2019-02-04T01:38:01.055Z,22.23
2019-02-04T01:40:32.730Z,22.30
2019-02-04T01:43:06.825Z,22.30
2019-02-04T01:45:39.848Z,22.33
2019-02-04T01:48:10.610Z,22.33
2019-02-04T01:50:41.820Z,21.76
2019-02-04T01:53:12.868Z,22.28
2019-02-04T01:55:44.821Z,22.12
2019-02-04T01:58:15.877Z,22.12
2019-02-04T02:00:46.874Z,22.20
2019-02-04T02:03:17.865Z,22.16
2019-02-04T02:05:47.966Z,22.19
2019-02-04T02:08:18.864Z,22.15
2019-02-04T02:10:49.801Z,22.11
2019-02-04T02:13:19.871Z,22.10
2019-02-04T02:15:51.846Z,22.13
2019-02-04T02:18:21.852Z,22.13
2019-02-04T02:20:52.875Z,22.07
2019-02-04T02:23:22.847Z,22.03
2019-02-04T02:25:53.859Z,22.13
2019-02-04T02:28:26.683Z,21.93
2019-02-04T02:30:55.794Z,21.93
2019-02-04T02:33:24.836Z,22.05
2019-02-04T02:35:53.810Z,22.07
2019-02-04T02:38:24.825Z,22.00
2019-02-04T02:40:56.856Z,21.98
2019-02-04T02:43:25.819Z,21.99
2019-02-04T02:45:58.722Z,21.97
2019-02-04T02:48:27.834Z,21.97
2019-02-04T02:50:57.834Z,21.97
2019-02-04T02:53:27.854Z,21.89
2019-02-04T02:56:00.833Z,21.89
2019-02-04T02:58:29.863Z,21.91
2019-02-04T03:00:59.855Z,21.86
2019-02-04T03:03:28.770Z,21.90
2019-02-04T03:05:57.853Z,21.90
2019-02-04T03:08:27.765Z,21.78
2019-02-04T03:11:04.834Z,21.72
2019-02-04T03:13:35.828Z,21.83
2019-02-04T03:16:05.877Z,21.84
2019-02-04T03:18:36.838Z,21.84
2019-02-04T03:21:06.876Z,21.80
2019-02-04T03:23:35.849Z,21.81
2019-02-04T03:26:05.858Z,21.78
2019-02-04T03:29:41.810Z,21.78
2019-02-04T03:32:10.779Z,21.77
2019-02-04T03:34:39.386Z,21.65
2019-02-04T03:37:07.881Z,21.65
2019-02-04T03:39:36.825Z,21.81
2019-02-04T03:42:05.749Z,21.74
2019-02-04T03:44:34.838Z,21.63
2019-02-04T03:47:03.793Z,21.63
2019-02-04T03:49:31.832Z,21.64
2019-02-04T03:52:02.835Z,21.65
2019-02-04T03:54:31.949Z,21.62
2019-02-04T03:57:00.430Z,21.54
2019-02-04T03:59:29.323Z,21.54
2019-02-04T04:01:57.864Z,21.66
2019-02-04T04:04:26.975Z,21.56
2019-02-04T04:06:58.554Z,21.57
2019-02-04T04:09:26.945Z,21.57
2019-02-04T04:11:55.755Z,21.58
2019-02-04T04:16:23.105Z,21.70
2019-02-04T04:18:50.397Z,21.66
2019-02-04T04:21:20.321Z,21.66
2019-02-04T04:23:50.338Z,21.66
2019-02-04T04:26:18.810Z,21.66
2019-02-04T04:28:46.846Z,21.56
2019-02-04T04:31:15.824Z,21.43
2019-02-04T04:33:44.645Z,21.51
2019-02-04T04:48:26.696Z,21.57
2019-02-04T04:50:53.486Z,21.54
2019-02-04T04:53:21.255Z,21.58
2019-02-04T04:55:50.839Z,21.57
2019-02-04T04:58:19.801Z,21.55
2019-02-04T05:00:47.939Z,21.55
2019-02-04T05:03:16.905Z,21.51
2019-02-04T05:05:45.825Z,21.58
2019-02-04T05:08:13.851Z,21.58
2019-02-04T05:10:42.923Z,21.57
2019-02-04T05:13:11.842Z,21.51
2019-02-04T05:15:40.967Z,21.51
2019-02-04T05:20:25.935Z,21.55
2019-02-04T05:22:54.849Z,21.53
2019-02-04T05:25:23.849Z,21.43
2019-02-04T05:27:53.682Z,21.43
2019-02-04T05:30:24.355Z,21.55
2019-02-04T05:32:53.314Z,21.55
2019-02-04T05:35:22.846Z,21.62
2019-02-04T05:37:50.384Z,21.56
2019-02-04T05:40:18.902Z,21.54
2019-02-04T05:42:48.630Z,21.52
2019-02-04T05:45:19.388Z,21.54
2019-02-04T05:47:48.759Z,21.52
2019-02-04T05:50:18.869Z,21.51
2019-02-04T05:52:47.026Z,21.54
2019-02-04T05:55:17.997Z,21.58
2019-02-04T05:57:46.805Z,21.55
2019-02-04T06:00:40.315Z,21.55
2019-02-04T06:03:08.815Z,21.52
2019-02-04T06:05:36.747Z,21.51
2019-02-04T06:08:04.817Z,21.54
2019-02-04T06:10:33.309Z,21.55
2019-02-04T06:13:03.350Z,21.51
2019-02-04T06:15:31.679Z,21.54
2019-02-04T06:17:59.778Z,21.52
2019-02-04T06:20:27.784Z,21.53
2019-02-04T06:22:55.950Z,21.55
2019-02-04T06:25:25.064Z,21.54
2019-02-04T06:27:53.847Z,21.50
2019-02-04T06:30:23.789Z,21.53
2019-02-04T06:32:51.726Z,21.53
2019-02-04T06:35:19.963Z,21.40
2019-02-04T06:37:48.800Z,21.05
2019-02-04T06:40:18.396Z,21.57
2019-02-04T06:42:47.610Z,21.49
2019-02-04T06:45:17.824Z,21.49
2019-02-04T06:47:46.756Z,21.60
2019-02-04T06:50:15.814Z,21.62
2019-02-04T06:52:44.075Z,21.45
2019-02-04T06:55:16.706Z,21.53
2019-02-04T06:57:46.597Z,21.55
2019-02-04T07:00:16.317Z,21.55
2019-02-04T07:02:46.326Z,21.32
2019-02-04T07:05:15.371Z,21.56
2019-02-04T07:07:44.800Z,21.57
2019-02-04T07:10:17.092Z,21.62
2019-02-04T07:12:47.748Z,21.47
2019-02-04T07:15:16.122Z,21.47
2019-02-04T07:17:44.694Z,21.61
2019-02-04T07:20:17.843Z,21.60
2019-02-04T07:22:45.703Z,21.60
2019-02-04T07:25:13.570Z,21.63
2019-02-04T07:28:58.838Z,21.62
2019-02-04T07:31:26.721Z,21.57
2019-02-04T07:33:55.760Z,21.58
2019-02-04T07:36:23.778Z,21.58
2019-02-04T07:38:51.883Z,21.64
2019-02-04T07:41:20.764Z,21.59
2019-02-04T07:43:49.812Z,21.59
2019-02-04T07:46:25.082Z,21.70
2019-02-04T07:48:53.491Z,21.56
2019-02-04T07:51:21.808Z,21.56
2019-02-04T07:53:50.797Z,21.70
2019-02-04T07:56:19.763Z,21.59
2019-02-04T07:58:47.791Z,21.63
2019-02-04T08:01:15.750Z,21.56
2019-02-04T08:04:29.798Z,21.60
2019-02-04T08:09:36.344Z,21.57
2019-02-04T08:12:06.780Z,21.57
2019-02-04T08:14:35.727Z,21.52
2019-02-04T08:17:05.730Z,21.52
2019-02-04T08:19:33.913Z,21.56
2019-02-04T08:22:02.779Z,21.68
2019-02-04T08:24:31.776Z,21.68
2019-02-04T08:26:59.706Z,21.75
2019-02-04T08:29:28.887Z,21.83
2019-02-04T08:31:57.590Z,21.99
2019-02-04T08:34:26.782Z,21.99
2019-02-04T08:36:54.690Z,22.03
2019-02-04T08:40:29.079Z,22.03
2019-02-04T08:42:57.781Z,22.04
2019-02-04T08:45:26.924Z,22.02
2019-02-04T08:47:57.065Z,22.16
2019-02-04T08:50:25.645Z,22.16
2019-02-04T08:53:59.083Z,22.22
2019-02-04T08:56:29.648Z,22.19
2019-02-04T08:58:58.063Z,22.32
2019-02-04T09:01:26.838Z,22.37
2019-02-04T09:03:55.381Z,22.37
2019-02-04T09:06:24.709Z,22.46
2019-02-04T09:08:52.674Z,22.50
2019-02-04T09:11:22.751Z,22.59
2019-02-04T09:13:52.515Z,22.70
2019-02-04T09:16:23.621Z,22.78
2019-02-04T09:19:47.661Z,22.84
2019-02-04T09:22:16.807Z,22.84
2019-02-04T09:24:46.450Z,22.96
2019-02-04T09:27:14.668Z,22.97
2019-02-04T09:29:42.358Z,23.02
2019-02-04T09:32:12.004Z,22.99
2019-02-04T09:34:40.990Z,22.93
2019-02-04T09:37:08.824Z,22.99
2019-02-04T09:39:38.874Z,22.93
2019-02-04T09:43:48.332Z,23.06
2019-02-04T09:46:17.850Z,23.07
2019-02-04T09:48:46.112Z,23.19
2019-02-04T09:51:15.911Z,23.30
2019-02-04T09:53:44.928Z,23.25
2019-02-04T09:56:14.719Z,23.42
2019-02-04T09:58:44.671Z,23.42
2019-02-04T10:01:14.901Z,23.30
2019-02-04T10:03:44.441Z,23.43
2019-02-04T10:06:12.965Z,23.43
2019-02-04T10:08:42.317Z,23.53
2019-02-04T10:11:10.680Z,23.53
2019-02-04T10:13:39.611Z,23.56
2019-02-04T10:16:07.691Z,23.57
2019-02-04T10:18:37.935Z,23.61
2019-02-04T10:21:07.505Z,23.40
2019-02-04T10:23:37.997Z,23.62
2019-02-04T10:26:06.013Z,23.54
2019-02-04T10:28:34.784Z,23.55
2019-02-04T10:31:03.671Z,23.55
2019-02-04T10:33:32.327Z,23.55
2019-02-04T10:36:01.982Z,23.48
2019-02-04T10:38:31.075Z,23.48
2019-02-04T10:40:59.699Z,23.29
2019-02-04T10:43:27.434Z,23.29
2019-02-04T10:45:57.651Z,23.30
2019-02-04T10:48:27.678Z,23.36
2019-02-04T10:50:55.998Z,23.36
2019-02-04T10:53:24.763Z,23.39
2019-02-04T10:55:54.055Z,23.31
2019-02-04T10:58:23.829Z,23.43
2019-02-04T11:00:53.070Z,23.43
2019-02-04T11:03:22.755Z,23.39
2019-02-04T11:05:56.369Z,23.44
2019-02-04T11:08:25.732Z,23.52
2019-02-04T11:10:54.742Z,23.61
2019-02-04T11:13:23.749Z,23.50
2019-02-04T11:26:53.469Z,23.57
2019-02-04T11:29:23.439Z,23.57
2019-02-04T11:31:51.717Z,23.66
2019-02-04T11:34:20.656Z,23.68
2019-02-04T11:36:50.472Z,23.62
2019-02-04T11:41:23.357Z,23.64
2019-02-04T11:43:55.888Z,23.69
2019-02-04T11:46:27.111Z,23.78
2019-02-04T11:48:57.410Z,23.78
2019-02-04T11:54:12.861Z,23.72
2019-02-04T11:56:43.017Z,23.67
2019-02-04T11:59:12.703Z,23.67
2019-02-04T12:01:42.323Z,23.60
2019-02-04T12:04:12.714Z,23.60
2019-02-04T12:06:41.850Z,23.52
2019-02-04T12:09:12.726Z,23.58
2019-02-04T12:11:42.389Z,23.58
2019-02-04T12:14:11.470Z,23.66
2019-02-04T12:16:40.331Z,23.71
2019-02-04T12:19:10.247Z,23.71
2019-02-04T12:21:39.547Z,23.75
2019-02-04T12:24:08.767Z,23.80
2019-02-04T12:26:38.387Z,23.81
2019-02-04T12:29:09.000Z,23.81
2019-02-04T12:31:38.587Z,23.90
2019-02-04T12:34:07.293Z,23.90
2019-02-04T12:36:38.922Z,24.03
2019-02-04T12:39:18.896Z,24.04
2019-02-04T12:41:50.648Z,23.94
2019-02-04T12:44:17.794Z,23.94
2019-02-04T12:46:46.987Z,24.09
2019-02-04T12:49:15.588Z,24.02
2019-02-04T12:51:45.116Z,24.06
2019-02-04T12:54:14.157Z,24.12
2019-02-04T12:56:43.862Z,23.95
2019-02-04T12:59:12.740Z,24.10
2019-02-04T13:01:42.724Z,24.10
2019-02-04T13:04:11.702Z,23.96
2019-02-04T13:06:40.525Z,24.09
2019-02-04T13:09:09.610Z,24.14
2019-02-04T13:11:38.652Z,24.13
2019-02-04T13:14:08.579Z,24.09
2019-02-04T13:16:38.671Z,24.09
2019-02-04T13:19:08.538Z,24.20
2019-02-04T13:21:45.040Z,24.20
2019-02-04T13:24:06.886Z,24.01
2019-02-04T13:26:34.883Z,24.01
2019-02-04T13:29:03.434Z,24.15
2019-02-04T13:31:31.939Z,24.13
2019-02-04T13:34:00.225Z,24.15
2019-02-04T13:36:28.925Z,24.07
2019-02-04T13:38:57.442Z,24.12
2019-02-04T13:41:26.200Z,24.17
2019-02-04T13:43:56.040Z,24.20
2019-02-04T13:46:27.400Z,24.20
2019-02-04T13:48:57.076Z,24.15
2019-02-04T13:51:26.327Z,24.14
2019-02-04T13:53:57.143Z,24.12
2019-02-04T13:56:25.054Z,24.07
2019-02-04T13:58:54.106Z,23.96
2019-02-04T14:01:21.756Z,23.96
2019-02-04T14:03:51.883Z,23.99
2019-02-04T14:06:20.186Z,23.99
2019-02-04T14:08:50.188Z,24.06
2019-02-04T14:11:19.785Z,24.02
2019-02-04T14:13:49.822Z,24.02
2019-02-04T14:16:18.372Z,24.05
2019-02-04T14:18:47.750Z,24.02
2019-02-04T14:21:17.230Z,24.07
2019-02-04T14:23:46.825Z,24.07
2019-02-04T14:26:15.128Z,24.07
2019-02-04T14:28:43.999Z,23.98
2019-02-04T14:31:12.595Z,23.88
2019-02-04T14:33:41.400Z,23.95
2019-02-04T14:36:10.270Z,23.91
2019-02-04T14:38:39.376Z,23.91
2019-02-04T14:41:09.650Z,23.79
2019-02-04T14:43:59.514Z,23.74
2019-02-04T14:46:58.942Z,23.74
2019-02-04T14:50:38.832Z,23.68
2019-02-04T14:56:33.067Z,23.38
2019-02-04T14:59:36.740Z,23.28
2019-02-04T15:03:19.067Z,23.28
2019-02-04T15:06:19.076Z,23.29
2019-02-04T15:09:46.660Z,23.31
2019-02-04T15:13:22.469Z,23.31
2019-02-04T15:16:29.598Z,23.27
2019-02-04T15:19:50.440Z,23.29
2019-02-04T15:22:34.281Z,23.29
2019-02-04T15:28:13.357Z,23.15
2019-02-04T15:31:17.290Z,23.15
2019-02-04T15:34:49.094Z,23.24
2019-02-04T15:37:59.980Z,23.19
2019-02-04T15:40:53.984Z,23.11
2019-02-04T15:44:36.722Z,23.05
2019-02-04T15:47:15.106Z,23.05
2019-02-04T15:50:25.529Z,22.94
2019-02-04T15:52:53.220Z,22.94
2019-02-04T15:55:21.947Z,23.02
2019-02-04T15:57:51.950Z,22.96
2019-02-04T16:00:21.582Z,22.95
2019-02-04T16:02:50.747Z,22.99
2019-02-04T16:05:20.964Z,22.96
2019-02-04T16:07:49.135Z,22.96
2019-02-04T16:10:19.215Z,22.97
2019-02-04T16:12:49.784Z,22.95
2019-02-04T16:15:18.816Z,22.91
2019-02-04T16:17:47.473Z,22.81
2019-02-04T16:20:20.314Z,22.62
2019-02-04T16:22:57.747Z,22.62
2019-02-04T16:25:19.640Z,22.74
2019-02-04T16:27:47.100Z,22.55
2019-02-04T16:30:17.676Z,22.55
2019-02-04T16:32:45.723Z,22.68
2019-02-04T16:35:15.375Z,22.63
2019-02-04T16:37:44.666Z,22.72
2019-02-04T16:40:16.353Z,22.72
2019-02-04T16:42:45.963Z,22.59
2019-02-04T16:45:14.609Z,22.59
2019-02-04T16:47:45.152Z,22.68
2019-02-04T16:50:21.387Z,22.60
2019-02-04T16:52:51.755Z,22.67
2019-02-04T16:55:20.373Z,22.55
2019-02-04T16:57:47.873Z,22.60
2019-02-04T17:00:23.191Z,22.60
2019-02-04T17:02:54.300Z,22.50
2019-02-04T17:05:24.911Z,22.50
2019-02-04T17:07:54.840Z,22.50
2019-02-04T17:10:24.961Z,22.46
2019-02-04T17:12:54.228Z,22.46
2019-02-04T17:15:25.515Z,22.51
2019-02-04T17:17:53.910Z,22.50
2019-02-04T17:20:29.922Z,22.31
2019-02-04T17:22:58.324Z,22.31
2019-02-04T17:25:28.227Z,22.36
2019-02-04T17:27:57.185Z,22.35
2019-02-04T17:30:24.674Z,22.36
2019-02-04T17:32:54.725Z,22.33
2019-02-04T17:35:23.017Z,22.29
2019-02-04T17:37:51.902Z,22.23
2019-02-04T17:40:20.772Z,22.34
2019-02-04T17:42:49.794Z,22.29
2019-02-04T17:45:20.300Z,22.31
2019-02-04T17:47:50.007Z,22.31
2019-02-04T17:50:19.611Z,22.26
2019-02-04T17:52:50.421Z,22.26
2019-02-04T17:55:21.830Z,22.25
2019-02-04T17:57:52.003Z,22.12
2019-02-04T18:00:29.739Z,22.09
2019-02-04T18:03:01.377Z,22.19
2019-02-04T18:05:30.761Z,22.19
2019-02-04T18:08:00.598Z,22.22
2019-02-04T18:10:30.189Z,22.28
2019-02-04T18:13:03.351Z,22.17
2019-02-04T18:15:34.402Z,22.17
2019-02-04T18:18:05.850Z,22.26
2019-02-04T18:20:37.619Z,22.01
2019-02-04T18:25:42.850Z,22.03
2019-02-04T18:28:14.575Z,22.11
2019-02-04T18:30:45.895Z,22.05
2019-02-04T18:33:18.000Z,22.07
2019-02-04T18:35:49.439Z,22.07
2019-02-04T18:38:21.473Z,21.97
2019-02-04T18:40:53.467Z,22.03
2019-02-04T18:43:25.131Z,22.03
2019-02-04T18:45:57.546Z,21.91
2019-02-04T18:48:29.270Z,21.91
2019-02-04T18:51:02.577Z,21.82
2019-02-04T18:53:35.591Z,21.98
2019-02-04T18:56:07.531Z,21.98
2019-02-04T18:58:39.936Z,21.97
2019-02-04T19:01:14.115Z,21.97
2019-02-04T19:03:46.318Z,21.95
2019-02-04T19:06:18.159Z,21.87
2019-02-04T19:08:51.120Z,21.83
2019-02-04T19:11:21.106Z,21.83
2019-02-04T19:13:51.183Z,21.90
2019-02-04T19:16:23.715Z,21.93
2019-02-04T19:18:56.046Z,22.01
2019-02-04T19:21:29.059Z,22.01
2019-02-04T19:24:09.271Z,21.87
2019-02-04T19:26:33.897Z,21.87
2019-02-04T19:29:58.004Z,22.04
2019-02-04T19:32:31.163Z,22.12
2019-02-04T19:35:03.434Z,22.07
2019-02-04T19:37:35.246Z,22.07
2019-02-04T19:40:08.278Z,22.09
2019-02-04T19:42:42.180Z,22.05
2019-02-04T19:45:17.362Z,21.94
2019-02-04T19:47:50.722Z,21.99
2019-02-04T19:50:26.915Z,21.99
2019-02-04T19:52:59.083Z,22.04
2019-02-04T19:55:31.201Z,22.18
2019-02-04T19:58:05.677Z,22.22
2019-02-04T20:00:40.135Z,22.02
2019-02-04T20:03:12.154Z,22.02
2019-02-04T20:05:45.413Z,22.14
2019-02-04T20:08:18.692Z,22.02
2019-02-04T20:10:51.426Z,22.17
2019-02-04T20:13:24.249Z,22.17
2019-02-04T20:15:58.015Z,22.16
2019-02-04T20:18:31.969Z,22.16
2019-02-04T20:21:05.537Z,22.20
2019-02-04T20:23:40.003Z,22.15
2019-02-04T20:26:11.897Z,22.12
2019-02-04T20:28:45.393Z,22.12
2019-02-04T20:31:18.636Z,22.20
2019-02-04T20:33:53.899Z,22.13
2019-02-04T20:36:27.245Z,22.17
2019-02-04T20:38:59.193Z,22.16
2019-02-04T20:41:33.697Z,22.19
2019-02-04T20:44:05.375Z,22.18
2019-02-04T20:46:39.613Z,22.26
2019-02-04T20:49:12.263Z,22.24
2019-02-04T20:51:44.603Z,22.24
2019-02-04T20:54:21.307Z,22.24
2019-02-04T20:56:55.934Z,22.10
2019-02-04T20:59:31.755Z,22.23
2019-02-04T21:02:03.690Z,22.13
2019-02-04T21:04:36.411Z,22.13
2019-02-04T21:07:09.376Z,22.21
2019-02-04T21:09:40.942Z,22.29
2019-02-04T21:12:12.780Z,22.26
2019-02-04T21:14:44.020Z,22.12
2019-02-04T21:17:15.584Z,22.12
2019-02-04T21:21:51.683Z,22.25
2019-02-04T21:24:21.972Z,22.25
2019-02-04T21:26:53.647Z,22.19
2019-02-04T21:29:25.660Z,22.29
2019-02-04T21:31:56.612Z,22.29
2019-02-04T21:34:26.126Z,22.24
2019-02-04T21:37:14.835Z,22.31
2019-02-04T21:39:44.954Z,22.13
2019-02-04T21:42:15.283Z,22.27
2019-02-04T21:44:46.963Z,22.27
2019-02-04T21:47:17.631Z,22.18
2019-02-04T21:49:46.726Z,22.22
2019-02-04T21:52:17.633Z,22.28
2019-02-04T21:54:46.758Z,22.31
2019-02-04T21:57:17.660Z,22.31
2019-02-04T21:59:47.716Z,22.22
2019-02-04T22:02:18.638Z,22.22
2019-02-04T22:04:50.760Z,22.29
2019-02-04T22:07:20.956Z,22.29
2019-02-04T22:09:50.241Z,22.29
2019-02-04T22:12:19.657Z,22.26
2019-02-04T22:14:50.749Z,22.26
2019-02-04T22:17:20.030Z,22.31
2019-02-04T22:19:51.588Z,22.20
2019-02-04T22:22:21.763Z,22.33
2019-02-04T22:24:53.471Z,22.31
2019-02-04T22:27:23.622Z,22.26
2019-02-04T22:29:53.641Z,22.26
2019-02-04T22:32:26.211Z,22.37
2019-02-04T22:34:56.991Z,22.39
2019-02-04T22:37:27.621Z,22.27
2019-02-04T22:39:58.654Z,22.27
2019-02-04T22:42:27.555Z,22.38
2019-02-04T22:44:57.976Z,22.44
2019-02-04T22:47:27.992Z,22.51
2019-02-04T22:49:58.901Z,22.41
2019-02-04T22:52:27.912Z,22.51
2019-02-04T22:54:59.531Z,22.57
2019-02-04T22:57:27.652Z,22.57
2019-02-04T22:59:58.318Z,22.59
2019-02-04T23:02:26.967Z,22.61
2019-02-04T23:04:57.654Z,22.54
2019-02-04T23:07:27.638Z,22.57
2019-02-04T23:09:57.913Z,22.76
2019-02-04T23:12:27.667Z,22.76
2019-02-04T23:14:57.945Z,22.80
2019-02-04T23:17:28.758Z,22.80
2019-02-04T23:22:43.957Z,22.71
2019-02-04T23:25:10.718Z,22.71
2019-02-04T23:27:40.598Z,22.64
2019-02-04T23:30:11.467Z,22.54
2019-02-04T23:32:42.438Z,22.52
2019-02-04T23:35:13.118Z,22.34
2019-02-04T23:37:42.089Z,22.39
2019-02-04T23:40:12.113Z,22.39
2019-02-04T23:42:42.068Z,22.47
2019-02-04T23:51:21.271Z,22.26
2019-02-04T23:53:51.091Z,22.25
2019-02-04T23:56:23.013Z,22.29
2019-02-04T23:58:53.005Z,22.29
